Time;durP1;ratioP1;P1;durP2;ratioP2;P2;SDS_P1;SDS_P2;PMS_P1;PMS_P2;Temp;Humidity;BMP_temperature;BMP_pressure;BME280_temperature;BME280_humidity;BME280_pressure;Samples;Min_cycle;Max_cycle;Signal;HPM_P1;HPM_P2
2022/04/18 00:01:15;;;;;;;0.80;0.80;;;;;;;;;;4995587;28;20069;-78
2022/04/18 00:03:45;;;;;;;0.00;0.00;;;;;;;;;;4995558;28;20052;-77
2022/04/18 00:06:16;;;;;;;0.65;0.65;;;;;;;;;;4995592;28;20448;-77
2022/04/18 00:08:49;;;;;;;0.00;0.00;;;;;;;;;;4995839;28;20046;-77
2022/04/18 00:11:21;;;;;;;0.00;0.00;;;;;;;;;;4978071;28;20085;-77
2022/04/18 00:14:14;;;;;;;0.08;0.08;;;;;;;;;;4995259;28;20065;-77
2022/04/18 00:16:45;;;;;;;0.00;0.00;;;;;;;;;;4995417;28;20062;-77
2022/04/18 00:19:13;;;;;;;0.90;0.88;;;;;;;;;;4995474;28;20117;-77
2022/04/18 00:22:05;;;;;;;0.13;0.13;;;;;;;;;;4994966;28;20043;-77
2022/04/18 00:24:58;;;;;;;0.45;0.45;;;;;;;;;;4995180;28;20058;-77
2022/04/18 00:27:26;;;;;;;0.20;0.20;;;;;;;;;;4994721;28;20088;-77
2022/04/18 00:29:57;;;;;;;0.00;0.00;;;;;;;;;;4977310;28;20046;-77
2022/04/18 00:32:25;;;;;;;0.00;0.00;;;;;;;;;;4994934;28;20070;-77
2022/04/18 00:34:57;;;;;;;0.45;0.45;;;;;;;;;;4977445;28;20073;-77
2022/04/18 00:37:30;;;;;;;0.00;0.00;;;;;;;;;;4994841;28;20047;-77
2022/04/18 00:40:02;;;;;;;0.52;0.43;;;;;;;;;;4977268;28;20078;-77
2022/04/18 00:42:36;;;;;;;0.10;0.10;;;;;;;;;;4977635;28;20133;-77
2022/04/18 00:45:04;;;;;;;0.73;0.73;;;;;;;;;;4977462;28;20042;-77
2022/04/18 00:47:56;;;;;;;0.63;0.63;;;;;;;;;;4994544;28;20050;-77
2022/04/18 00:50:32;;;;;;;0.00;0.00;;;;;;;;;;4977232;28;20560;-77
2022/04/18 00:55:32;;;;;;;0.22;0.22;;;;;;;;;;4994852;28;19961;-77
2022/04/18 00:58:24;;;;;;;0.03;0.03;;;;;;;;;;4994368;28;20046;-77
2022/04/18 01:00:54;;;;;;;0.10;0.10;;;;;;;;;;4994382;28;20050;-77
2022/04/18 01:03:24;;;;;;;0.20;0.20;;;;;;;;;;4976924;28;20049;-77
2022/04/18 01:05:54;;;;;;;0.00;0.00;;;;;;;;;;4994879;28;20133;-78
2022/04/18 01:08:25;;;;;;;0.00;0.00;;;;;;;;;;4994361;28;20038;-76
2022/04/18 01:10:54;;;;;;;0.00;0.00;;;;;;;;;;4976715;28;20046;-77
2022/04/18 01:13:30;;;;;;;0.13;0.13;;;;;;;;;;4977245;28;20042;-76
2022/04/18 01:16:15;;;;;;;1.00;0.95;;;;;;;;;;4977251;28;20505;-77
2022/04/18 01:19:33;;;;;;;0.20;0.20;;;;;;;;;;4976902;28;20049;-77
2022/04/18 01:22:02;;;;;;;0.10;0.10;;;;;;;;;;4994407;28;20058;-77
2022/04/18 01:33:34;;;;;;;0.30;0.30;;;;;;;;;;4976491;28;20046;-76
2022/04/18 01:36:37;;;;;;;0.82;0.80;;;;;;;;;;4976338;28;20046;-77
2022/04/18 01:39:11;;;;;;;0.73;0.73;;;;;;;;;;4976735;28;20185;-77
2022/04/18 01:41:45;;;;;;;0.35;0.35;;;;;;;;;;4993526;28;20069;-78
2022/04/18 01:44:39;;;;;;;1.60;1.42;;;;;;;;;;4975771;28;20109;-77
2022/04/18 01:47:09;;;;;;;0.32;0.32;;;;;;;;;;4960562;28;20046;-77
2022/04/18 01:49:37;;;;;;;0.47;0.32;;;;;;;;;;4976588;28;20066;-77
2022/04/18 01:52:10;;;;;;;0.03;0.03;;;;;;;;;;4976224;28;20077;-77
2022/04/18 01:54:43;;;;;;;1.25;1.05;;;;;;;;;;4976168;28;20102;-77
2022/04/18 01:57:14;;;;;;;0.35;0.30;;;;;;;;;;4976271;28;20141;-77
2022/04/18 01:59:46;;;;;;;0.00;0.00;;;;;;;;;;4976085;28;20061;-77
2022/04/18 02:02:17;;;;;;;0.20;0.20;;;;;;;;;;4976291;28;20398;-77
2022/04/18 02:04:45;;;;;;;0.25;0.25;;;;;;;;;;4997530;28;20077;-77
2022/04/18 02:07:14;;;;;;;0.00;0.00;;;;;;;;;;4980333;28;20137;-77
2022/04/18 02:09:54;;;;;;;0.00;0.00;;;;;;;;;;4979821;28;20050;-76
2022/04/18 02:12:22;;;;;;;0.67;0.67;;;;;;;;;;4980334;28;20113;-77
2022/04/18 02:15:02;;;;;;;0.00;0.00;;;;;;;;;;4980000;28;20050;-76
2022/04/18 02:17:35;;;;;;;0.00;0.00;;;;;;;;;;4980022;28;20409;-77
2022/04/18 02:20:07;;;;;;;0.68;0.68;;;;;;;;;;4980213;28;20047;-77
2022/04/18 02:22:35;;;;;;;0.90;0.47;;;;;;;;;;4979828;28;20096;-77
2022/04/18 02:25:06;;;;;;;0.00;0.00;;;;;;;;;;4979952;28;20043;-77
2022/04/18 02:27:36;;;;;;;1.38;0.90;;;;;;;;;;4997374;28;20038;-77
2022/04/18 02:30:22;;;;;;;0.95;0.90;;;;;;;;;;4964355;28;20400;-77
2022/04/18 02:33:16;;;;;;;0.00;0.00;;;;;;;;;;4979738;28;20421;-77
2022/04/18 02:39:23;;;;;;;;;;;;;;;;;;4979926;28;20420;-77
2022/04/18 02:42:16;;;;;;;0.38;0.38;;;;;;;;;;4979232;28;19925;-77
2022/04/18 02:44:46;;;;;;;0.52;0.52;;;;;;;;;;4963547;28;20050;-76
2022/04/18 02:47:43;;;;;;;0.10;0.10;;;;;;;;;;4979408;28;20049;-77
2022/04/18 02:50:13;;;;;;;0.00;0.00;;;;;;;;;;4979392;28;20493;-77
2022/04/18 02:52:42;;;;;;;0.10;0.10;;;;;;;;;;4996893;28;20065;-76
2022/04/18 02:55:12;;;;;;;0.03;0.03;;;;;;;;;;4979812;28;20419;-77
2022/04/18 02:57:46;;;;;;;0.45;0.45;;;;;;;;;;4979394;28;20412;-76
2022/04/18 03:00:16;;;;;;;0.15;0.15;;;;;;;;;;4978931;28;20054;-76
2022/04/18 03:02:48;;;;;;;0.10;0.10;;;;;;;;;;4979365;28;20050;-76
2022/04/18 03:05:20;;;;;;;0.20;0.20;;;;;;;;;;4979233;28;20133;-76
2022/04/18 03:07:52;;;;;;;1.50;0.73;;;;;;;;;;4979111;28;20077;-76
2022/04/18 03:11:02;;;;;;;0.98;0.88;;;;;;;;;;4978992;28;20054;-76
2022/04/18 03:13:16;;;;;;;0.00;0.00;;;;;;;;;;4979004;28;20559;-76
2022/04/18 03:15:47;;;;;;;0.10;0.10;;;;;;;;;;4962606;28;20567;-76
2022/04/18 03:18:16;;;;;;;0.00;0.00;;;;;;;;;;4978825;28;20137;-76
2022/04/18 03:20:47;;;;;;;0.38;0.38;;;;;;;;;;4978917;28;20106;-76
2022/04/18 03:23:18;;;;;;;0.15;0.15;;;;;;;;;;4978757;28;20416;-76
2022/04/18 03:26:13;;;;;;;0.05;0.05;;;;;;;;;;4956631;28;20367;-77
2022/04/18 03:28:56;;;;;;;0.00;0.00;;;;;;;;;;4979055;28;20065;-76
2022/04/18 03:31:28;;;;;;;0.47;0.47;;;;;;;;;;4978567;28;20042;-76
2022/04/18 03:33:59;;;;;;;0.00;0.00;;;;;;;;;;4978628;28;20137;-77
2022/04/18 03:42:12;;;;;;;0.10;0.10;;;;;;;;;;4978580;28;20054;-76
2022/04/18 03:44:46;;;;;;;0.98;0.90;;;;;;;;;;4995691;28;20053;-75
2022/04/18 03:47:19;;;;;;;0.40;0.33;;;;;;;;;;4978528;28;20051;-75
2022/04/18 03:49:51;;;;;;;0.20;0.20;;;;;;;;;;4978312;28;20054;-75
2022/04/18 03:52:20;;;;;;;0.80;0.80;;;;;;;;;;4995785;28;20043;-76
2022/04/18 03:54:48;;;;;;;0.52;0.52;;;;;;;;;;4978039;28;20046;-75
2022/04/18 03:57:27;;;;;;;0.70;0.55;;;;;;;;;;4978309;28;20136;-76
2022/04/18 04:00:02;;;;;;;0.03;0.03;;;;;;;;;;4974696;28;20057;-76
2022/04/18 04:02:46;;;;;;;0.00;0.00;;;;;;;;;;4976328;28;20399;-76
2022/04/18 04:05:21;;;;;;;0.30;0.30;;;;;;;;;;4974871;28;20058;-76
2022/04/18 04:08:02;;;;;;;3.25;2.15;;;;;;;;;;4974791;28;20054;-76
2022/04/18 04:13:53;;;;;;;0.13;0.13;;;;;;;;;;4975015;28;20047;-76
2022/04/18 04:16:47;;;;;;;0.75;0.47;;;;;;;;;;4974444;28;20055;-76
2022/04/18 04:19:14;;;;;;;1.75;1.55;;;;;;;;;;4974472;28;20098;-76
2022/04/18 04:21:54;;;;;;;1.80;0.77;;;;;;;;;;4974393;28;20039;-76
2022/04/18 04:24:25;;;;;;;0.60;0.43;;;;;;;;;;4973732;28;20046;-76
2022/04/18 04:26:54;;;;;;;0.55;0.55;;;;;;;;;;4973663;28;20046;-76
2022/04/18 04:33:06;;;;;;;0.00;0.00;;;;;;;;;;4974376;28;20065;-76
2022/04/18 04:35:39;;;;;;;0.80;0.80;;;;;;;;;;4973818;28;20051;-76
2022/04/18 04:38:12;;;;;;;2.13;1.55;;;;;;;;;;4975957;28;20046;-76
2022/04/18 04:40:49;;;;;;;0.17;0.17;;;;;;;;;;4974162;28;20047;-76
2022/04/18 04:43:28;;;;;;;1.10;1.00;;;;;;;;;;4973802;28;20498;-76
2022/04/18 04:46:00;;;;;;;0.38;0.38;;;;;;;;;;4973873;28;20133;-76
2022/04/18 04:48:33;;;;;;;0.13;0.13;;;;;;;;;;4975479;28;20061;-76
2022/04/18 04:51:14;;;;;;;0.10;0.10;;;;;;;;;;4974386;28;20051;-76
2022/04/18 04:53:42;;;;;;;0.30;0.20;;;;;;;;;;4973868;28;20049;-76
2022/04/18 04:56:14;;;;;;;0.03;0.03;;;;;;;;;;4973824;28;20049;-76
2022/04/18 04:58:42;;;;;;;0.47;0.47;;;;;;;;;;4978983;28;20062;-77
2022/04/18 05:01:10;;;;;;;0.47;0.40;;;;;;;;;;4976880;28;20097;-77
2022/04/18 05:04:01;;;;;;;0.10;0.10;;;;;;;;;;4976804;28;20050;-76
2022/04/18 05:06:35;;;;;;;0.80;0.80;;;;;;;;;;4977013;28;20050;-76
2022/04/18 05:09:17;;;;;;;1.45;0.45;;;;;;;;;;4977120;28;20539;-77
2022/04/18 05:12:10;;;;;;;0.88;0.88;;;;;;;;;;4976741;28;20049;-77
2022/04/18 05:14:40;;;;;;;0.60;0.60;;;;;;;;;;4976429;28;20046;-76
2022/04/18 05:24:55;;;;;;;0.10;0.05;;;;;;;;;;4993911;28;20053;-79
2022/04/18 05:27:43;;;;;;;0.22;0.22;;;;;;;;;;4992247;28;20818;-79
2022/04/18 05:33:51;;;;;;;0.10;0.10;;;;;;;;;;4992362;28;20460;-79
2022/04/18 05:36:24;;;;;;;0.10;0.10;;;;;;;;;;4993008;28;20382;-78
2022/04/18 05:42:06;;;;;;;0.55;0.55;;;;;;;;;;4976648;28;20093;-77
2022/04/18 05:45:00;;;;;;;1.10;0.60;;;;;;;;;;4992047;28;20054;-77
2022/04/18 05:47:30;;;;;;;0.60;0.60;;;;;;;;;;4975424;28;20046;-77
2022/04/18 05:50:26;;;;;;;0.22;0.22;;;;;;;;;;4974678;28;20054;-78
2022/04/18 05:56:50;;;;;;;1.42;0.82;;;;;;;;;;4992032;28;20041;-78
2022/04/18 05:59:27;;;;;;;0.38;0.38;;;;;;;;;;4970129;28;20058;-79
2022/04/18 06:02:36;;;;;;;0.55;0.55;;;;;;;;;;4973682;28;20537;-79
2022/04/18 06:05:14;;;;;;;0.20;0.20;;;;;;;;;;4973066;28;20417;-79
2022/04/18 06:07:51;;;;;;;0.30;0.30;;;;;;;;;;4972903;28;20494;-78
2022/04/18 06:10:24;;;;;;;0.10;0.10;;;;;;;;;;4974346;28;20047;-79
2022/04/18 06:13:19;;;;;;;1.25;1.15;;;;;;;;;;4972559;28;20142;-79
2022/04/18 06:15:47;;;;;;;0.08;0.08;;;;;;;;;;4973076;28;20139;-79
2022/04/18 06:18:19;;;;;;;0.20;0.20;;;;;;;;;;4972947;28;20505;-79
2022/04/18 06:20:47;;;;;;;0.08;0.03;;;;;;;;;;4989197;28;20047;-79
2022/04/18 06:23:18;;;;;;;8.18;6.82;;;;;;;;;;4974114;28;20059;-78
2022/04/18 06:25:54;;;;;;;9.88;8.02;;;;;;;;;;4972669;28;20133;-79
2022/04/18 06:28:26;;;;;;;8.95;6.72;;;;;;;;;;4973058;28;20077;-79
2022/04/18 06:30:56;;;;;;;7.43;5.95;;;;;;;;;;4972838;28;20039;-79
2022/04/18 06:33:36;;;;;;;6.20;5.35;;;;;;;;;;4972565;28;20075;-80
2022/04/18 06:36:31;;;;;;;6.63;5.20;;;;;;;;;;4974062;28;20521;-79
2022/04/18 06:39:43;;;;;;;7.15;5.80;;;;;;;;;;4974371;28;20186;-79
2022/04/18 06:42:46;;;;;;;5.75;4.93;;;;;;;;;;4972893;28;20047;-80
2022/04/18 06:45:26;;;;;;;5.18;4.40;;;;;;;;;;4988841;28;20055;-80
2022/04/18 06:47:54;;;;;;;5.28;4.43;;;;;;;;;;4972770;28;20047;-79
2022/04/18 06:50:33;;;;;;;4.88;4.30;;;;;;;;;;4975480;28;20046;-80
2022/04/18 06:53:21;;;;;;;5.90;5.30;;;;;;;;;;4977345;28;20057;-80
2022/04/18 06:59:23;;;;;;;6.55;5.32;;;;;;;;;;4975691;28;20583;-80
2022/04/18 07:01:55;;;;;;;10.10;8.57;;;;;;;;;;4975854;28;20039;-79
2022/04/18 07:04:27;;;;;;;7.60;5.85;;;;;;;;;;4976029;28;20645;-80
2022/04/18 07:06:58;;;;;;;6.45;5.13;;;;;;;;;;4975893;28;20081;-80
2022/04/18 07:09:40;;;;;;;5.82;5.00;;;;;;;;;;4975578;28;20126;-79
2022/04/18 07:12:29;;;;;;;9.60;6.72;;;;;;;;;;4975285;28;20074;-79
2022/04/18 07:18:17;;;;;;;5.88;4.70;;;;;;;;;;4975504;28;20146;-79
2022/04/18 07:20:49;;;;;;;4.97;4.47;;;;;;;;;;4975108;28;20045;-79
2022/04/18 07:23:19;;;;;;;4.82;4.30;;;;;;;;;;4975883;28;20053;-79
2022/04/18 07:26:02;;;;;;;4.70;4.18;;;;;;;;;;4975520;28;20098;-79
2022/04/18 07:28:39;;;;;;;5.50;4.40;;;;;;;;;;4975935;28;20047;-79
2022/04/18 07:31:16;;;;;;;6.15;4.40;;;;;;;;;;4975195;28;20054;-79
2022/04/18 07:33:51;;;;;;;5.28;4.18;;;;;;;;;;4975088;28;20154;-79
2022/04/18 07:36:47;;;;;;;7.65;4.35;;;;;;;;;;4975610;28;20504;-79
2022/04/18 07:39:41;;;;;;;5.53;4.40;;;;;;;;;;4975434;28;20042;-79
2022/04/18 07:42:34;;;;;;;4.65;3.97;;;;;;;;;;4991382;28;20043;-78
2022/04/18 07:45:02;;;;;;;5.43;4.32;;;;;;;;;;4975048;28;20051;-78
2022/04/18 07:48:00;;;;;;;7.32;4.10;;;;;;;;;;4974419;28;20523;-79
2022/04/18 07:53:27;;;;;;;4.88;3.58;;;;;;;;;;4974833;28;20046;-79
2022/04/18 07:55:58;;;;;;;5.22;3.53;;;;;;;;;;4974762;28;20137;-79
2022/04/18 07:58:29;;;;;;;6.03;3.80;;;;;;;;;;4974969;28;20061;-79
2022/04/18 08:01:27;;;;;;;6.97;4.10;;;;;;;;;;4973455;28;20054;-79
2022/04/18 08:03:57;;;;;;;6.43;4.43;;;;;;;;;;4990971;28;20059;-79
2022/04/18 08:06:31;;;;;;;5.38;4.50;;;;;;;;;;4975875;28;20097;-79
2022/04/18 08:09:39;;;;;;;6.47;4.70;;;;;;;;;;4974802;28;20597;-78
2022/04/18 08:12:07;;;;;;;5.60;4.10;;;;;;;;;;4990970;28;20578;-78
2022/04/18 08:14:55;;;;;;;6.18;4.50;;;;;;;;;;4975882;28;20557;-78
2022/04/18 08:17:30;;;;;;;6.40;4.57;;;;;;;;;;4990935;28;20134;-78
2022/04/18 08:20:04;;;;;;;5.63;4.13;;;;;;;;;;4974410;28;20510;-78
2022/04/18 08:22:31;;;;;;;5.38;3.83;;;;;;;;;;4990780;28;20046;-78
2022/04/18 08:25:17;;;;;;;6.65;4.55;;;;;;;;;;4988286;28;20122;-78
2022/04/18 08:28:09;;;;;;;4.65;3.95;;;;;;;;;;4975729;28;20524;-78
2022/04/18 08:31:02;;;;;;;6.15;4.55;;;;;;;;;;4974147;28;20071;-78
2022/04/18 08:34:16;;;;;;;6.22;4.63;;;;;;;;;;4967855;28;20437;-78
2022/04/18 08:36:46;;;;;;;4.10;3.70;;;;;;;;;;4974114;28;20077;-79
2022/04/18 08:39:20;;;;;;;5.72;4.13;;;;;;;;;;4974067;28;20070;-78
2022/04/18 08:42:05;;;;;;;6.20;3.97;;;;;;;;;;4974164;28;20050;-78
2022/04/18 08:44:39;;;;;;;8.57;4.30;;;;;;;;;;4990072;28;20117;-78
2022/04/18 08:52:43;;;;;;;5.60;4.22;;;;;;;;;;4974470;28;20505;-78
2022/04/18 08:52:51;;;;;;;5.05;3.53;;;;;;;;;;4973807;28;20097;-78
2022/04/18 08:55:36;;;;;;;5.05;3.55;;;;;;;;;;4974659;28;20568;-78
2022/04/18 08:58:24;;;;;;;3.85;3.35;;;;;;;;;;4973766;28;20069;-78
2022/04/18 09:01:18;;;;;;;6.20;4.10;;;;;;;;;;4973761;28;20453;-78
2022/04/18 09:03:49;;;;;;;12.48;8.07;;;;;;;;;;4975496;28;20046;-78
2022/04/18 09:06:26;;;;;;;4.80;3.60;;;;;;;;;;4973873;28;20533;-79
2022/04/18 09:09:38;;;;;;;4.32;3.35;;;;;;;;;;4968515;28;20394;-78
2022/04/18 09:12:19;;;;;;;6.07;3.83;;;;;;;;;;4973520;28;20046;-78
2022/04/18 09:15:14;;;;;;;4.82;3.50;;;;;;;;;;4974965;28;20050;-78
2022/04/18 09:17:50;;;;;;;3.97;3.22;;;;;;;;;;4973721;28;20050;-78
2022/04/18 09:20:21;;;;;;;4.88;3.15;;;;;;;;;;4974564;28;20085;-78
2022/04/18 09:22:59;;;;;;;4.25;3.35;;;;;;;;;;4973368;28;20113;-78
2022/04/18 09:25:26;;;;;;;3.53;3.20;;;;;;;;;;4973778;28;20043;-78
2022/04/18 09:31:24;;;;;;;3.25;2.72;;;;;;;;;;4973331;28;20038;-78
2022/04/18 09:33:58;;;;;;;4.43;2.92;;;;;;;;;;4972355;28;20050;-78
2022/04/18 09:36:32;;;;;;;3.47;2.85;;;;;;;;;;4973217;28;20043;-78
2022/04/18 09:42:21;;;;;;;4.80;2.92;;;;;;;;;;4973156;28;20159;-77
2022/04/18 09:45:37;;;;;;;4.63;2.92;;;;;;;;;;4973078;28;20046;-77
2022/04/18 09:48:13;;;;;;;;;;;;;;;;;;4973818;28;20418;-77
2022/04/18 09:51:01;;;;;;;4.63;2.90;;;;;;;;;;4973302;28;19926;-76
2022/04/18 09:53:46;;;;;;;3.33;2.85;;;;;;;;;;4972977;28;20051;-76
2022/04/18 09:56:18;;;;;;;4.35;3.45;;;;;;;;;;4973161;28;20043;-77
2022/04/18 09:58:48;;;;;;;4.65;3.55;;;;;;;;;;4972926;28;20067;-76
2022/04/18 10:01:36;;;;;;;4.38;3.22;;;;;;;;;;4993613;28;20149;-76
2022/04/18 10:04:17;;;;;;;4.88;3.00;;;;;;;;;;4994067;28;20043;-76
2022/04/18 10:07:10;;;;;;;3.20;2.90;;;;;;;;;;4993408;28;20038;-76
2022/04/18 10:09:44;;;;;;;6.15;3.33;;;;;;;;;;4993244;28;20042;-75
2022/04/18 10:12:20;;;;;;;3.95;3.33;;;;;;;;;;4994040;28;20046;-76
2022/04/18 10:14:49;;;;;;;6.18;3.22;;;;;;;;;;4993694;28;20130;-76
2022/04/18 10:17:21;;;;;;;2.92;2.50;;;;;;;;;;4976291;28;20041;-76
2022/04/18 10:19:50;;;;;;;3.35;2.47;;;;;;;;;;4994075;28;20485;-76
2022/04/18 10:22:40;;;;;;;3.53;2.67;;;;;;;;;;4993619;28;20468;-76
2022/04/18 10:25:11;;;;;;;3.53;2.47;;;;;;;;;;4995725;28;20046;-77
2022/04/18 10:27:43;;;;;;;2.97;2.40;;;;;;;;;;4997315;28;20038;-76
2022/04/18 10:30:17;;;;;;;2.42;2.22;;;;;;;;;;4997351;28;20097;-76
2022/04/18 10:32:47;;;;;;;3.35;2.80;;;;;;;;;;4997589;28;20061;-76
2022/04/18 10:35:16;;;;;;;3.00;2.42;;;;;;;;;;4979833;28;20039;-76
2022/04/18 10:37:54;;;;;;;2.83;2.35;;;;;;;;;;4997144;28;20403;-76
2022/04/18 10:40:24;;;;;;;3.35;2.35;;;;;;;;;;4997302;28;20480;-76
2022/04/18 10:42:52;;;;;;;3.30;2.50;;;;;;;;;;4996960;28;20129;-76
2022/04/18 10:45:27;;;;;;;3.85;2.67;;;;;;;;;;4997054;28;20073;-76
2022/04/18 10:48:06;;;;;;;4.10;2.95;;;;;;;;;;4997109;28;20039;-76
2022/04/18 10:50:36;;;;;;;2.67;2.47;;;;;;;;;;4997125;28;20034;-75
2022/04/18 10:53:09;;;;;;;3.72;2.88;;;;;;;;;;4996750;28;20050;-75
2022/04/18 10:55:42;;;;;;;3.00;2.67;;;;;;;;;;4979346;28;20042;-75
2022/04/18 10:58:17;;;;;;;3.28;2.72;;;;;;;;;;4979476;28;20125;-76
2022/04/18 11:00:53;;;;;;;2.70;2.35;;;;;;;;;;4996279;28;20056;-76
2022/04/18 11:03:39;;;;;;;4.88;2.65;;;;;;;;;;4996371;28;20042;-76
2022/04/18 11:06:21;;;;;;;7.00;5.15;;;;;;;;;;4997176;28;20051;-76
2022/04/18 11:09:00;;;;;;;4.50;2.55;;;;;;;;;;4996968;28;20066;-76
2022/04/18 11:11:37;;;;;;;3.70;2.40;;;;;;;;;;4996344;28;20551;-76
2022/04/18 11:14:18;;;;;;;2.53;2.10;;;;;;;;;;4978685;28;20421;-76
2022/04/18 11:16:52;;;;;;;4.05;3.03;;;;;;;;;;4996153;28;20042;-76
2022/04/18 11:19:24;;;;;;;2.95;2.50;;;;;;;;;;4978784;28;20460;-75
2022/04/18 11:21:57;;;;;;;4.20;2.63;;;;;;;;;;4978615;28;20453;-75
2022/04/18 11:24:46;;;;;;;2.80;2.50;;;;;;;;;;4996308;28;20042;-75
2022/04/18 11:27:21;;;;;;;2.90;2.60;;;;;;;;;;4996571;28;20046;-75
2022/04/18 11:29:58;;;;;;;4.97;3.20;;;;;;;;;;4996483;28;20042;-75
2022/04/18 11:32:29;;;;;;;4.10;3.15;;;;;;;;;;4995952;28;20042;-75
2022/04/18 11:34:59;;;;;;;3.10;2.60;;;;;;;;;;4995781;28;20050;-75
2022/04/18 11:37:31;;;;;;;7.07;3.50;;;;;;;;;;4996259;28;20575;-76
2022/04/18 11:40:00;;;;;;;3.25;2.67;;;;;;;;;;4978688;28;20039;-75
2022/04/18 11:42:32;;;;;;;4.25;2.88;;;;;;;;;;4995701;28;20049;-76
2022/04/18 11:45:24;;;;;;;4.28;3.08;;;;;;;;;;4996038;28;20489;-75
2022/04/18 11:48:18;;;;;;;4.28;3.30;;;;;;;;;;4996096;28;20046;-75
2022/04/18 11:51:10;;;;;;;3.15;2.70;;;;;;;;;;4995892;28;20440;-75
2022/04/18 11:54:05;;;;;;;5.50;4.35;;;;;;;;;;4995278;28;20038;-75
2022/04/18 11:56:40;;;;;;;3.28;2.97;;;;;;;;;;4995507;28;20089;-76
2022/04/18 11:59:07;;;;;;;4.32;3.08;;;;;;;;;;4994998;28;20057;-75
2022/04/18 12:08:04;;;;;;;3.22;2.78;;;;;;;;;;4978035;28;20165;-76
2022/04/18 12:10:35;;;;;;;2.72;2.40;;;;;;;;;;4978308;28;20397;-76
2022/04/18 12:13:06;;;;;;;3.30;2.75;;;;;;;;;;4995371;28;20042;-76
2022/04/18 12:15:36;;;;;;;3.90;2.90;;;;;;;;;;4995211;28;20039;-76
2022/04/18 12:18:14;;;;;;;4.35;2.65;;;;;;;;;;4995338;28;20112;-76
2022/04/18 12:20:46;;;;;;;5.80;3.95;;;;;;;;;;4995393;28;20038;-76
2022/04/18 12:23:19;;;;;;;8.85;5.93;;;;;;;;;;4995084;28;20074;-77
2022/04/18 12:26:06;;;;;;;4.22;3.47;;;;;;;;;;4995369;28;20104;-76
2022/04/18 12:28:38;;;;;;;8.68;6.82;;;;;;;;;;4994864;28;20097;-76
2022/04/18 12:31:21;;;;;;;10.00;4.78;;;;;;;;;;4994279;28;20050;-76
2022/04/18 12:34:19;;;;;;;4.38;3.30;;;;;;;;;;4994740;28;20424;-76
2022/04/18 12:37:03;;;;;;;3.58;2.88;;;;;;;;;;4995171;28;20054;-76
2022/04/18 12:39:33;;;;;;;4.57;3.45;;;;;;;;;;4994782;28;20101;-76
2022/04/18 12:42:09;;;;;;;9.07;4.70;;;;;;;;;;4995054;28;20104;-76
2022/04/18 12:44:39;;;;;;;8.18;5.18;;;;;;;;;;4977530;28;20074;-76
2022/04/18 12:47:19;;;;;;;12.77;7.35;;;;;;;;;;4993995;28;20130;-76
2022/04/18 12:50:08;;;;;;;9.77;6.00;;;;;;;;;;4994702;28;20042;-76
2022/04/18 12:52:49;;;;;;;8.13;4.78;;;;;;;;;;4995004;28;20034;-76
2022/04/18 12:55:27;;;;;;;10.73;6.60;;;;;;;;;;4977292;28;20500;-76
2022/04/18 12:57:56;;;;;;;7.13;4.50;;;;;;;;;;4994285;28;20046;-76
2022/04/18 13:00:35;;;;;;;14.45;9.38;;;;;;;;;;4994215;28;20392;-74
2022/04/18 13:03:09;;;;;;;11.15;8.15;;;;;;;;;;4994740;28;20038;-75
2022/04/18 13:05:43;;;;;;;7.72;4.50;;;;;;;;;;4976829;28;20131;-74
2022/04/18 13:08:13;;;;;;;6.85;4.30;;;;;;;;;;4994340;28;20069;-74
2022/04/18 13:10:46;;;;;;;6.18;4.45;;;;;;;;;;4976851;28;20125;-74
2022/04/18 13:13:19;;;;;;;5.55;4.18;;;;;;;;;;4994258;28;20567;-74
2022/04/18 13:15:50;;;;;;;6.93;4.03;;;;;;;;;;4993861;28;20485;-76
2022/04/18 13:18:27;;;;;;;7.78;5.07;;;;;;;;;;4976676;28;20046;-76
2022/04/18 13:21:00;;;;;;;12.70;7.25;;;;;;;;;;4994457;28;20471;-74
2022/04/18 13:23:29;;;;;;;9.82;6.50;;;;;;;;;;4994169;28;20046;-74
2022/04/18 13:25:58;;;;;;;8.82;5.65;;;;;;;;;;4993935;28;20045;-76
2022/04/18 13:28:29;;;;;;;9.02;6.38;;;;;;;;;;4994245;28;20066;-73
2022/04/18 13:30:58;;;;;;;9.40;6.30;;;;;;;;;;4976741;28;20034;-75
2022/04/18 13:33:28;;;;;;;8.70;6.65;;;;;;;;;;4977152;28;20108;-75
2022/04/18 13:38:42;;;;;;;7.13;5.55;;;;;;;;;;4993809;28;20053;-75
2022/04/18 13:41:10;;;;;;;8.48;5.60;;;;;;;;;;5000783;28;20053;-75
2022/04/18 13:43:42;;;;;;;6.55;4.82;;;;;;;;;;5013484;28;20519;-77
2022/04/18 13:46:21;;;;;;;6.32;4.53;;;;;;;;;;5013530;28;20042;-75
2022/04/18 13:49:15;;;;;;;5.50;4.50;;;;;;;;;;5013354;28;20496;-76
2022/04/18 13:51:46;;;;;;;6.97;4.68;;;;;;;;;;5020072;28;20034;-74
2022/04/18 13:54:14;;;;;;;5.32;4.15;;;;;;;;;;5013708;28;20396;-75
2022/04/18 13:56:47;;;;;;;5.07;3.78;;;;;;;;;;5015736;28;20057;-72
2022/04/18 13:59:19;;;;;;;8.73;4.30;;;;;;;;;;5001177;28;20050;-73
2022/04/18 14:01:48;;;;;;;6.38;4.60;;;;;;;;;;5019623;28;20038;-73
2022/04/18 14:04:20;;;;;;;6.78;5.03;;;;;;;;;;5017129;28;20088;-73
2022/04/18 14:06:48;;;;;;;10.88;6.03;;;;;;;;;;5016950;28;20104;-73
2022/04/18 14:09:17;;;;;;;13.38;7.43;;;;;;;;;;5017175;28;20042;-73
2022/04/18 14:11:47;;;;;;;12.40;7.22;;;;;;;;;;5017241;28;20053;-73
2022/04/18 14:21:31;;;;;;;10.02;6.05;;;;;;;;;;5002029;28;20027;-72
2022/04/18 14:28:13;;;;;;;9.55;6.28;;;;;;;;;;5016797;28;19917;-72
2022/04/18 14:31:07;;;;;;;9.15;6.68;;;;;;;;;;5015782;28;20046;-73
2022/04/18 14:33:37;;;;;;;10.88;7.10;;;;;;;;;;5016226;28;20121;-73
2022/04/18 14:36:08;;;;;;;9.55;6.43;;;;;;;;;;5016886;28;20104;-73
2022/04/18 14:38:39;;;;;;;9.27;6.50;;;;;;;;;;5016827;28;20038;-73
2022/04/18 14:41:10;;;;;;;8.68;6.22;;;;;;;;;;5016489;28;20493;-73
2022/04/18 14:43:38;;;;;;;7.70;6.22;;;;;;;;;;5016694;28;20046;-74
2022/04/18 14:46:11;;;;;;;7.80;5.60;;;;;;;;;;5016539;28;20054;-73
2022/04/18 14:56:11;;;;;;;6.22;4.10;;;;;;;;;;5016291;28;20125;-74
2022/04/18 14:59:10;;;;;;;7.35;4.20;;;;;;;;;;5016042;28;20421;-74
2022/04/18 15:04:56;;;;;;;5.78;4.18;;;;;;;;;;5015508;28;20080;-74
2022/04/18 15:07:24;;;;;;;8.95;4.57;;;;;;;;;;5015930;28;20042;-74
2022/04/18 15:09:53;;;;;;;4.47;3.72;;;;;;;;;;5015782;28;20052;-75
2022/04/18 15:12:27;;;;;;;6.25;4.60;;;;;;;;;;5016145;28;20061;-75
2022/04/18 15:14:57;;;;;;;7.15;5.10;;;;;;;;;;5016218;28;20050;-75
2022/04/18 15:17:25;;;;;;;7.10;4.47;;;;;;;;;;4997971;28;20042;-74
2022/04/18 15:19:53;;;;;;;5.55;4.50;;;;;;;;;;5015602;28;20469;-74
2022/04/18 15:22:21;;;;;;;6.00;4.45;;;;;;;;;;5016306;28;20042;-74
2022/04/18 15:24:51;;;;;;;7.15;4.15;;;;;;;;;;5016284;28;20046;-74
2022/04/18 15:27:44;;;;;;;5.15;4.18;;;;;;;;;;5016446;28;20057;-73
2022/04/18 15:33:03;;;;;;;5.22;3.97;;;;;;;;;;5015935;28;20078;-74
2022/04/18 15:35:35;;;;;;;4.35;3.60;;;;;;;;;;5015406;28;20049;-75
2022/04/18 15:38:04;;;;;;;5.05;3.67;;;;;;;;;;5015286;28;20042;-75
2022/04/18 15:40:34;;;;;;;4.95;3.95;;;;;;;;;;5015675;28;20052;-74
2022/04/18 15:43:04;;;;;;;6.18;4.05;;;;;;;;;;5015314;28;20050;-75
2022/04/18 15:45:40;;;;;;;4.10;3.35;;;;;;;;;;5015658;28;20038;-75
2022/04/18 15:48:12;;;;;;;5.25;3.70;;;;;;;;;;5015479;28;20092;-75
2022/04/18 15:50:43;;;;;;;4.70;4.20;;;;;;;;;;5015342;28;20053;-74
2022/04/18 15:53:35;;;;;;;4.80;4.28;;;;;;;;;;5015426;28;20092;-74
2022/04/18 15:56:27;;;;;;;7.72;5.80;;;;;;;;;;5015414;28;20038;-74
2022/04/18 15:59:21;;;;;;;6.20;4.45;;;;;;;;;;5015264;28;20038;-74
2022/04/18 16:01:50;;;;;;;5.55;4.40;;;;;;;;;;5014170;28;20045;-73
2022/04/18 16:04:21;;;;;;;8.20;4.40;;;;;;;;;;5012130;28;20037;-72
2022/04/18 16:07:14;;;;;;;6.15;4.10;;;;;;;;;;5009134;28;20397;-75
2022/04/18 16:09:43;;;;;;;7.20;4.85;;;;;;;;;;4995338;28;20057;-72
2022/04/18 16:12:11;;;;;;;8.35;4.85;;;;;;;;;;5002923;28;20061;-71
2022/04/18 16:14:43;;;;;;;7.07;5.00;;;;;;;;;;5014802;28;20141;-71
2022/04/18 16:17:10;;;;;;;7.50;4.50;;;;;;;;;;5014823;28;20065;-74
2022/04/18 16:19:38;;;;;;;6.32;4.45;;;;;;;;;;5015282;28;20440;-77
2022/04/18 16:25:12;;;;;;;6.13;4.10;;;;;;;;;;5013482;28;20129;-74
2022/04/18 16:27:41;;;;;;;8.07;5.22;;;;;;;;;;5014040;28;20134;-77
2022/04/18 16:33:19;;;;;;;8.77;6.05;;;;;;;;;;5013421;28;20049;-78
2022/04/18 16:45:55;;;;;;;8.18;4.15;;;;;;;;;;5014132;28;20436;-73
2022/04/18 16:48:23;;;;;;;5.00;4.15;;;;;;;;;;5013888;28;20037;-73
2022/04/18 16:50:50;;;;;;;4.78;3.85;;;;;;;;;;5014098;28;20061;-72
2022/04/18 16:53:18;;;;;;;5.93;3.67;;;;;;;;;;5014245;28;20046;-76
2022/04/18 16:56:06;;;;;;;5.90;4.72;;;;;;;;;;5013148;28;20473;-74
2022/04/18 16:58:33;;;;;;;5.05;3.95;;;;;;;;;;5014371;28;20096;-75
2022/04/18 17:01:01;;;;;;;6.13;5.35;;;;;;;;;;5013644;28;20543;-75
2022/04/18 17:03:30;;;;;;;5.22;4.20;;;;;;;;;;5013925;28;20041;-74
2022/04/18 17:05:58;;;;;;;10.52;4.53;;;;;;;;;;4996422;28;20037;-71
2022/04/18 17:08:26;;;;;;;4.68;4.18;;;;;;;;;;5013749;28;20042;-73
2022/04/18 17:10:56;;;;;;;4.95;4.40;;;;;;;;;;4996142;28;20129;-75
2022/04/18 17:13:25;;;;;;;5.72;4.43;;;;;;;;;;5013725;28;20116;-74
2022/04/18 17:15:54;;;;;;;8.90;5.05;;;;;;;;;;5013792;28;20043;-71
2022/04/18 17:18:23;;;;;;;6.47;4.90;;;;;;;;;;5013544;28;20042;-72
2022/04/18 17:20:50;;;;;;;7.13;5.10;;;;;;;;;;5013911;28;20049;-72
2022/04/18 17:23:18;;;;;;;9.85;5.43;;;;;;;;;;5013448;28;20081;-72
2022/04/18 17:25:46;;;;;;;6.93;5.47;;;;;;;;;;5013994;28;20042;-73
2022/04/18 17:28:17;;;;;;;6.88;5.13;;;;;;;;;;5013608;28;20084;-73
2022/04/18 17:30:45;;;;;;;8.07;5.40;;;;;;;;;;5013670;28;20397;-74
2022/04/18 17:33:12;;;;;;;6.75;5.80;;;;;;;;;;5014048;28;20057;-74